Time;durP1;ratioP1;P1;durP2;ratioP2;P2;SDS_P1;SDS_P2;PMS_P1;PMS_P2;Temp;Humidity;BMP_temperature;BMP_pressure;BME280_temperature;BME280_humidity;BME280_pressure;Samples;Min_cycle;Max_cycle;Signal;HPM_P1;HPM_P2
2022/07/21 00:02:04;;;;;;;7.20;4.20;;;;;;;;;;109599;1257;33527;-33
2022/07/21 00:04:42;;;;;;;7.50;4.30;;;;;;;;;;109573;1251;33675;-33
2022/07/21 00:07:17;;;;;;;6.40;3.80;;;;;;;;;;109598;1251;34331;-33
2022/07/21 00:09:49;;;;;;;7.90;5.00;;;;;;;;;;109604;1251;33810;-33
2022/07/21 00:12:22;;;;;;;14.20;4.80;;;;;;;;;;109640;1257;33742;-33
2022/07/21 00:14:55;;;;;;;6.80;3.80;;;;;;;;;;109602;1251;34296;-33
2022/07/21 00:17:27;;;;;;;6.60;4.40;;;;;;;;;;109603;1251;34169;-33
2022/07/21 00:20:00;;;;;;;6.80;3.80;;;;;;;;;;109602;1251;33732;-33
2022/07/21 00:22:33;;;;;;;7.40;4.30;;;;;;;;;;109610;1257;33518;-33
2022/07/21 00:25:06;;;;;;;;;;;;;;;;;;109617;1252;33383;-33
2022/07/21 00:27:39;;;;;;;7.50;4.00;;;;;;;;;;109623;1251;33737;-33
2022/07/21 00:30:12;;;;;;;;;;;;;;;;;;109611;1252;33507;-33
2022/07/21 00:32:47;;;;;;;7.50;4.10;;;;;;;;;;109620;1257;33596;-33
2022/07/21 00:35:20;;;;;;;6.30;4.20;;;;;;;;;;109596;1251;33755;-33
2022/07/21 00:37:52;;;;;;;7.00;3.60;;;;;;;;;;109620;1251;33861;-33
2022/07/21 00:40:24;;;;;;;6.60;4.30;;;;;;;;;;109603;1257;33356;-33
2022/07/21 00:42:57;;;;;;;6.30;4.10;;;;;;;;;;109640;1251;33781;-33
2022/07/21 00:45:30;;;;;;;6.20;4.00;;;;;;;;;;109588;1251;32888;-33
2022/07/21 00:48:02;;;;;;;6.10;3.80;;;;;;;;;;109590;1251;33225;-33
2022/07/21 00:50:35;;;;;;;6.00;3.90;;;;;;;;;;109616;1257;33197;-33
2022/07/21 00:53:08;;;;;;;6.30;4.20;;;;;;;;;;109595;1251;33260;-33
2022/07/21 00:55:40;;;;;;;6.20;3.70;;;;;;;;;;109597;1251;33759;-33
2022/07/21 00:58:12;;;;;;;;;;;;;;;;;;109632;1257;33566;-33
2022/07/21 01:00:45;;;;;;;5.10;3.40;;;;;;;;;;109621;1257;33610;-33
2022/07/21 01:03:20;;;;;;;6.40;3.80;;;;;;;;;;109601;1251;33658;-33
2022/07/21 01:05:53;;;;;;;6.30;3.80;;;;;;;;;;109601;1251;33704;-33
2022/07/21 01:08:28;;;;;;;6.70;3.80;;;;;;;;;;109632;1251;32869;-33
2022/07/21 01:11:03;;;;;;;7.00;4.20;;;;;;;;;;109571;1252;33315;-33
2022/07/21 01:13:41;;;;;;;6.40;3.80;;;;;;;;;;109596;1249;33703;-33
2022/07/21 01:16:16;;;;;;;5.90;3.70;;;;;;;;;;109618;1251;33549;-33
2022/07/21 01:18:52;;;;;;;6.20;3.80;;;;;;;;;;109606;1251;33857;-33
2022/07/21 01:21:33;;;;;;;6.20;4.20;;;;;;;;;;109607;1251;33916;-33
2022/07/21 01:24:12;;;;;;;6.00;4.30;;;;;;;;;;109609;1250;33357;-33
2022/07/21 01:26:47;;;;;;;5.90;3.70;;;;;;;;;;109603;1257;33396;-33
2022/07/21 01:29:23;;;;;;;5.40;3.90;;;;;;;;;;109614;1251;33012;-33
2022/07/21 01:31:56;;;;;;;5.80;3.60;;;;;;;;;;109641;1251;33777;-33
2022/07/21 01:34:28;;;;;;;5.90;3.80;;;;;;;;;;109610;1257;33473;-33
2022/07/21 01:37:01;;;;;;;7.00;3.90;;;;;;;;;;109627;1251;33409;-33
2022/07/21 01:42:23;;;;;;;6.70;4.20;;;;;;;;;;109606;1255;33895;-33
2022/07/21 01:44:58;;;;;;;5.90;4.10;;;;;;;;;;109601;1251;33374;-33
2022/07/21 01:47:30;;;;;;;5.90;3.90;;;;;;;;;;109622;1257;33424;-33
2022/07/21 01:50:03;;;;;;;6.40;3.70;;;;;;;;;;109599;1251;33937;-33
2022/07/21 01:52:36;;;;;;;5.10;3.60;;;;;;;;;;109630;1250;34411;-33
2022/07/21 01:55:13;;;;;;;6.80;3.60;;;;;;;;;;109603;1249;32903;-33
2022/07/21 01:57:46;;;;;;;5.60;3.90;;;;;;;;;;109608;1257;33612;-33
2022/07/21 02:00:24;;;;;;;6.50;4.20;;;;;;;;;;109622;1257;33693;-33
2022/07/21 02:02:56;;;;;;;6.20;3.90;;;;;;;;;;109592;1251;34053;-33
2022/07/21 02:05:29;;;;;;;5.30;3.50;;;;;;;;;;109588;1251;33903;-33
2022/07/21 02:08:04;;;;;;;6.90;4.10;;;;;;;;;;109586;1257;34002;-33
2022/07/21 02:10:39;;;;;;;7.50;4.10;;;;;;;;;;109601;1251;34412;-33
2022/07/21 02:13:16;;;;;;;5.70;3.70;;;;;;;;;;109590;1251;33694;-33
2022/07/21 02:15:54;;;;;;;5.70;4.00;;;;;;;;;;109614;1251;33037;-33
2022/07/21 02:18:27;;;;;;;5.30;3.70;;;;;;;;;;109577;1252;34078;-33
2022/07/21 02:21:00;;;;;;;6.40;3.60;;;;;;;;;;109612;1257;34051;-33
2022/07/21 02:23:34;;;;;;;5.50;4.10;;;;;;;;;;109610;1257;33293;-33
2022/07/21 02:26:07;;;;;;;6.70;3.80;;;;;;;;;;109622;1251;33534;-33
2022/07/21 02:28:39;;;;;;;5.70;3.80;;;;;;;;;;109611;1251;33493;-33
2022/07/21 02:31:12;;;;;;;6.90;3.90;;;;;;;;;;109633;1257;34006;-33
2022/07/21 02:33:45;;;;;;;5.30;3.60;;;;;;;;;;109597;1251;33434;-33
2022/07/21 02:36:20;;;;;;;7.00;4.20;;;;;;;;;;109613;1251;33825;-33
2022/07/21 02:38:53;;;;;;;6.70;3.90;;;;;;;;;;109619;1251;33531;-33
2022/07/21 02:41:28;;;;;;;7.30;3.80;;;;;;;;;;109597;1256;33994;-33
2022/07/21 02:44:01;;;;;;;6.30;4.20;;;;;;;;;;109643;1251;33274;-33
2022/07/21 02:46:34;;;;;;;6.00;3.90;;;;;;;;;;109632;1251;34164;-33
2022/07/21 02:49:07;;;;;;;6.50;4.00;;;;;;;;;;109568;1251;34345;-33
2022/07/21 02:51:40;;;;;;;6.10;3.60;;;;;;;;;;109619;1251;33347;-33
2022/07/21 02:54:12;;;;;;;6.70;4.20;;;;;;;;;;109616;1251;33460;-33
2022/07/21 02:56:45;;;;;;;5.50;3.80;;;;;;;;;;109590;1250;33610;-33
2022/07/21 02:59:18;;;;;;;6.00;3.80;;;;;;;;;;109605;1250;33059;-33
2022/07/21 03:01:50;;;;;;;6.00;3.80;;;;;;;;;;109604;1257;31894;-33
2022/07/21 03:04:23;;;;;;;6.40;3.80;;;;;;;;;;109620;1251;33691;-33
2022/07/21 03:06:55;;;;;;;6.00;3.80;;;;;;;;;;109629;1257;33692;-33
2022/07/21 03:09:28;;;;;;;5.30;3.80;;;;;;;;;;109569;1251;34180;-33
2022/07/21 03:12:01;;;;;;;5.90;3.70;;;;;;;;;;109619;1256;33868;-33
2022/07/21 03:14:32;;;;;;;;;;;;;;;;;;109602;1251;33861;-33
2022/07/21 03:17:08;;;;;;;5.70;4.30;;;;;;;;;;109635;1251;33797;-33
2022/07/21 03:19:41;;;;;;;5.70;3.60;;;;;;;;;;109614;1257;33725;-33
2022/07/21 03:22:14;;;;;;;6.90;3.70;;;;;;;;;;109626;1257;33538;-33
2022/07/21 03:24:47;;;;;;;5.40;4.20;;;;;;;;;;109604;1251;33828;-33
2022/07/21 03:27:20;;;;;;;5.80;3.70;;;;;;;;;;109616;1251;33511;-33
2022/07/21 03:29:53;;;;;;;6.20;3.90;;;;;;;;;;109611;1257;33294;-33
2022/07/21 03:32:26;;;;;;;7.40;4.10;;;;;;;;;;109601;1251;33720;-33
2022/07/21 03:35:02;;;;;;;7.00;4.60;;;;;;;;;;109586;1251;33825;-33
2022/07/21 03:37:40;;;;;;;6.30;3.60;;;;;;;;;;109629;1251;33704;-33
2022/07/21 03:40:19;;;;;;;6.10;3.70;;;;;;;;;;109580;1251;35709;-33
2022/07/21 03:42:56;;;;;;;5.60;3.50;;;;;;;;;;109661;1257;33569;-33
2022/07/21 03:45:33;;;;;;;7.80;4.50;;;;;;;;;;109586;1251;33425;-33
2022/07/21 03:48:08;;;;;;;5.80;4.20;;;;;;;;;;109607;1251;34346;-33
2022/07/21 03:50:44;;;;;;;5.20;3.40;;;;;;;;;;109639;1251;33801;-33
2022/07/21 03:53:16;;;;;;;5.60;3.90;;;;;;;;;;109615;1251;33632;-33
2022/07/21 03:55:49;;;;;;;5.40;3.50;;;;;;;;;;109575;1257;34039;-33
2022/07/21 03:58:21;;;;;;;5.20;3.70;;;;;;;;;;109597;1251;33855;-33
2022/07/21 04:00:53;;;;;;;5.90;4.00;;;;;;;;;;109579;1251;33690;-33
2022/07/21 04:03:26;;;;;;;5.70;4.10;;;;;;;;;;109601;1251;33501;-33
2022/07/21 04:05:59;;;;;;;4.90;3.30;;;;;;;;;;109605;1251;33510;-33
2022/07/21 04:08:31;;;;;;;6.20;3.80;;;;;;;;;;109641;1251;33784;-33
2022/07/21 04:11:03;;;;;;;6.40;4.10;;;;;;;;;;109606;1251;33252;-33
2022/07/21 04:13:36;;;;;;;5.00;3.80;;;;;;;;;;109609;1251;33673;-33
2022/07/21 04:16:14;;;;;;;6.40;3.80;;;;;;;;;;109636;1257;33941;-33
2022/07/21 04:18:50;;;;;;;6.50;3.90;;;;;;;;;;109617;1254;33367;-33
2022/07/21 04:21:23;;;;;;;6.30;3.90;;;;;;;;;;109627;1251;33704;-33
2022/07/21 04:23:55;;;;;;;5.60;3.80;;;;;;;;;;109611;1251;34130;-33
2022/07/21 04:26:30;;;;;;;;;;;;;;;;;;109627;1257;33461;-33
2022/07/21 04:29:02;;;;;;;5.70;3.40;;;;;;;;;;109599;1251;33292;-33
2022/07/21 04:31:35;;;;;;;5.70;3.30;;;;;;;;;;109600;1251;34303;-33
2022/07/21 04:34:12;;;;;;;6.60;3.70;;;;;;;;;;109631;1251;33960;-33
2022/07/21 04:36:44;;;;;;;7.00;3.70;;;;;;;;;;109624;1257;34401;-33
2022/07/21 04:39:19;;;;;;;5.40;3.50;;;;;;;;;;109589;1250;33760;-33
2022/07/21 04:41:51;;;;;;;6.90;3.60;;;;;;;;;;109606;1251;33711;-33
2022/07/21 04:44:23;;;;;;;5.70;3.70;;;;;;;;;;109622;1251;34135;-33
2022/07/21 04:46:56;;;;;;;5.30;3.70;;;;;;;;;;109606;1252;33948;-33
2022/07/21 04:49:32;;;;;;;5.00;3.30;;;;;;;;;;109584;1251;33936;-33
2022/07/21 04:52:09;;;;;;;6.50;3.40;;;;;;;;;;109613;1251;33759;-33
2022/07/21 04:54:42;;;;;;;5.40;3.30;;;;;;;;;;109605;1251;33816;-33
2022/07/21 04:57:14;;;;;;;5.10;3.00;;;;;;;;;;109569;1257;33516;-33
2022/07/21 04:59:46;;;;;;;;;;;;;;;;;;109604;1251;33699;-33
2022/07/21 05:02:18;;;;;;;6.30;2.90;;;;;;;;;;109594;1250;33416;-33
2022/07/21 05:04:52;;;;;;;5.00;3.00;;;;;;;;;;109587;1251;33336;-33
2022/07/21 05:07:22;;;;;;;;;;;;;;;;;;109586;1257;33663;-33
2022/07/21 05:09:56;;;;;;;4.90;2.90;;;;;;;;;;109618;1251;32721;-33
2022/07/21 05:12:31;;;;;;;4.50;3.00;;;;;;;;;;109618;1257;34409;-33
2022/07/21 05:15:07;;;;;;;5.20;2.90;;;;;;;;;;109594;1254;33609;-33
2022/07/21 05:17:40;;;;;;;6.50;3.00;;;;;;;;;;109847;1251;32776;-34
2022/07/21 05:20:14;;;;;;;9.10;3.90;;;;;;;;;;109882;1257;22549;-34
2022/07/21 05:22:46;;;;;;;8.10;4.10;;;;;;;;;;109899;1257;22506;-34
2022/07/21 05:25:21;;;;;;;6.20;3.80;;;;;;;;;;109881;1257;25280;-34
2022/07/21 05:27:53;;;;;;;7.40;3.90;;;;;;;;;;109838;1257;25937;-34
2022/07/21 05:30:26;;;;;;;5.70;3.80;;;;;;;;;;109867;1257;22440;-34
2022/07/21 05:32:58;;;;;;;8.60;3.80;;;;;;;;;;109901;1257;22421;-34
2022/07/21 05:35:30;;;;;;;6.80;4.20;;;;;;;;;;109869;1257;22511;-34
2022/07/21 05:38:03;;;;;;;8.70;4.10;;;;;;;;;;109894;1256;22835;-34
2022/07/21 05:40:35;;;;;;;6.20;4.00;;;;;;;;;;109829;1251;22600;-34
2022/07/21 05:43:08;;;;;;;7.90;4.10;;;;;;;;;;109888;1251;22647;-34
2022/07/21 05:45:40;;;;;;;6.00;3.80;;;;;;;;;;109907;1257;22521;-34
2022/07/21 05:48:12;;;;;;;;;;;;;;;;;;109892;1251;22500;-34
2022/07/21 05:50:44;;;;;;;6.10;3.80;;;;;;;;;;109876;1257;22525;-34
2022/07/21 05:53:16;;;;;;;;;;;;;;;;;;109909;1257;22485;-34
2022/07/21 05:55:49;;;;;;;7.00;3.70;;;;;;;;;;109840;1257;22514;-34
2022/07/21 05:58:23;;;;;;;6.40;3.30;;;;;;;;;;109903;1257;22519;-34
2022/07/21 06:01:12;;;;;;;8.70;4.10;;;;;;;;;;109627;1257;599714;-34
2022/07/21 06:03:48;;;;;;;6.30;3.20;;;;;;;;;;109864;1257;24235;-34
2022/07/21 06:06:23;;;;;;;5.70;3.00;;;;;;;;;;109848;1251;22517;-34
2022/07/21 06:08:55;;;;;;;5.70;3.30;;;;;;;;;;109852;1257;24235;-34
2022/07/21 06:11:30;;;;;;;7.20;3.10;;;;;;;;;;109916;1257;24134;-35
2022/07/21 06:14:03;;;;;;;5.70;3.10;;;;;;;;;;109857;1256;22523;-35
2022/07/21 06:16:35;;;;;;;5.10;2.90;;;;;;;;;;109830;1257;23705;-35
2022/07/21 06:19:10;;;;;;;5.10;2.60;;;;;;;;;;109809;1257;22521;-35
2022/07/21 06:21:45;;;;;;;5.90;3.10;;;;;;;;;;109850;1257;22504;-35
2022/07/21 06:24:19;;;;;;;5.60;2.80;;;;;;;;;;109876;1257;22518;-35
2022/07/21 06:26:51;;;;;;;5.90;2.50;;;;;;;;;;109893;1257;24093;-35
2022/07/21 06:29:24;;;;;;;4.30;2.50;;;;;;;;;;109851;1257;22579;-35
2022/07/21 06:31:56;;;;;;;4.80;2.60;;;;;;;;;;109867;1257;22506;-35
2022/07/21 06:34:28;;;;;;;5.80;2.60;;;;;;;;;;109770;1252;22075;-32
2022/07/21 06:37:01;;;;;;;9.80;2.30;;;;;;;;;;109840;1257;22499;-32
2022/07/21 06:39:33;;;;;;;4.50;2.40;;;;;;;;;;109850;1251;22605;-33
2022/07/21 06:42:09;;;;;;;4.70;2.20;;;;;;;;;;109853;1257;22511;-33
2022/07/21 06:44:41;;;;;;;4.80;2.10;;;;;;;;;;109865;1257;22533;-33
2022/07/21 06:47:13;;;;;;;4.50;2.10;;;;;;;;;;109839;1257;22626;-33
2022/07/21 06:49:46;;;;;;;4.80;2.10;;;;;;;;;;109831;1259;22586;-32
2022/07/21 06:52:18;;;;;;;4.20;2.30;;;;;;;;;;109759;1260;22514;-32
2022/07/21 06:54:50;;;;;;;4.30;2.10;;;;;;;;;;109749;1260;22622;-30
2022/07/21 06:57:23;;;;;;;4.40;2.00;;;;;;;;;;109846;1251;22576;-30
2022/07/21 06:59:58;;;;;;;5.90;2.30;;;;;;;;;;109822;1251;21706;-30
2022/07/21 07:02:30;;;;;;;4.30;2.10;;;;;;;;;;109842;1258;22517;-30
2022/07/21 07:05:02;;;;;;;4.20;2.00;;;;;;;;;;109839;1257;25190;-30
2022/07/21 07:07:35;;;;;;;4.00;1.80;;;;;;;;;;109864;1260;22601;-31
2022/07/21 07:10:12;;;;;;;5.60;2.20;;;;;;;;;;109655;1259;24281;-31
2022/07/21 07:12:45;;;;;;;4.50;2.00;;;;;;;;;;109885;1259;22595;-30
2022/07/21 07:15:18;;;;;;;3.70;1.60;;;;;;;;;;109938;1258;22529;-30
2022/07/21 07:17:50;;;;;;;5.70;2.10;;;;;;;;;;109818;1259;22869;-30
2022/07/21 07:20:26;;;;;;;5.30;2.20;;;;;;;;;;109842;1251;22607;-30
2022/07/21 07:22:58;;;;;;;5.00;1.80;;;;;;;;;;109802;1260;22511;-31
2022/07/21 07:25:30;;;;;;;4.40;2.00;;;;;;;;;;109845;1259;22802;-30
2022/07/21 07:28:05;;;;;;;3.70;1.90;;;;;;;;;;109866;1260;23175;-30
2022/07/21 07:30:38;;;;;;;4.80;2.00;;;;;;;;;;109865;1259;22528;-30
2022/07/21 07:33:16;;;;;;;4.00;2.10;;;;;;;;;;109831;1251;22512;-30
2022/07/21 07:35:51;;;;;;;5.70;1.90;;;;;;;;;;109807;1258;22433;-31
2022/07/21 07:38:24;;;;;;;3.50;1.80;;;;;;;;;;109854;1260;22443;-30
2022/07/21 07:40:56;;;;;;;5.10;1.70;;;;;;;;;;109817;1260;22605;-30
2022/07/21 07:43:29;;;;;;;4.60;1.90;;;;;;;;;;109822;1257;22468;-31
2022/07/21 07:46:10;;;;;;;5.40;2.10;;;;;;;;;;109855;1256;22523;-31
2022/07/21 07:48:45;;;;;;;4.60;2.10;;;;;;;;;;109762;1251;22509;-31
2022/07/21 07:51:21;;;;;;;4.90;2.20;;;;;;;;;;109850;1258;22417;-31
2022/07/21 07:53:53;;;;;;;4.50;1.90;;;;;;;;;;109860;1254;23070;-31
2022/07/21 07:56:25;;;;;;;4.90;1.90;;;;;;;;;;109851;1257;22615;-31
2022/07/21 07:58:57;;;;;;;3.50;1.80;;;;;;;;;;109850;1257;25181;-31
2022/07/21 08:01:30;;;;;;;3.90;2.10;;;;;;;;;;109864;1256;25184;-31
2022/07/21 08:04:06;;;;;;;4.50;2.00;;;;;;;;;;109850;1256;24144;-31
2022/07/21 08:06:41;;;;;;;3.80;1.80;;;;;;;;;;109860;1256;22722;-31
2022/07/21 08:09:15;;;;;;;5.00;2.40;;;;;;;;;;109897;1251;22727;-31
2022/07/21 08:11:54;;;;;;;;;;;;;;;;;;109687;1257;22492;-32
2022/07/21 08:14:26;;;;;;;4.10;1.80;;;;;;;;;;109876;1257;22516;-31
2022/07/21 08:16:59;;;;;;;5.20;2.30;;;;;;;;;;109852;1257;22511;-31
2022/07/21 08:19:32;;;;;;;6.00;2.10;;;;;;;;;;109886;1257;23687;-31
2022/07/21 08:22:04;;;;;;;5.60;2.30;;;;;;;;;;109892;1251;24822;-31
2022/07/21 08:24:39;;;;;;;5.60;2.20;;;;;;;;;;109892;1256;22773;-31
2022/07/21 08:27:12;;;;;;;4.90;2.10;;;;;;;;;;109806;1256;22597;-31
2022/07/21 08:29:46;;;;;;;4.40;2.10;;;;;;;;;;109866;1254;22520;-31
2022/07/21 08:32:21;;;;;;;4.30;1.80;;;;;;;;;;109872;1256;23320;-31
2022/07/21 08:34:53;;;;;;;4.80;2.20;;;;;;;;;;109916;1256;22514;-31
2022/07/21 08:37:27;;;;;;;4.10;1.90;;;;;;;;;;109865;1252;22651;-31
2022/07/21 08:40:00;;;;;;;4.70;2.00;;;;;;;;;;109884;1256;22572;-31
2022/07/21 08:42:32;;;;;;;5.90;2.40;;;;;;;;;;109845;1251;22824;-31
2022/07/21 08:45:07;;;;;;;5.00;2.20;;;;;;;;;;109914;1257;22492;-31
2022/07/21 08:47:40;;;;;;;4.10;2.20;;;;;;;;;;109901;1251;22514;-32
2022/07/21 08:50:14;;;;;;;5.20;2.40;;;;;;;;;;109832;1256;22512;-33
2022/07/21 08:52:47;;;;;;;4.60;1.90;;;;;;;;;;109911;1257;24160;-34
2022/07/21 08:55:19;;;;;;;3.80;2.00;;;;;;;;;;109997;1257;22512;-34
2022/07/21 08:57:55;;;;;;;4.40;2.00;;;;;;;;;;109978;1256;22522;-34
2022/07/21 09:00:28;;;;;;;6.90;2.10;;;;;;;;;;109853;1257;24159;-32
2022/07/21 09:03:16;;;;;;;4.10;2.10;;;;;;;;;;109872;1256;24154;-35
2022/07/21 09:06:07;;;;;;;4.70;2.10;;;;;;;;;;109885;1257;22513;-34
2022/07/21 09:08:43;;;;;;;4.70;1.70;;;;;;;;;;109865;1257;22498;-36
2022/07/21 09:11:20;;;;;;;7.70;2.20;;;;;;;;;;109835;1257;22427;-36
2022/07/21 09:14:09;;;;;;;4.70;2.20;;;;;;;;;;109865;1257;22525;-34
2022/07/21 09:16:43;;;;;;;4.10;1.90;;;;;;;;;;109855;1252;22534;-33
2022/07/21 09:19:31;;;;;;;4.30;2.00;;;;;;;;;;109855;1256;22520;-36
2022/07/21 09:22:07;;;;;;;4.60;2.30;;;;;;;;;;109892;1256;22430;-35
2022/07/21 09:24:40;;;;;;;4.30;2.20;;;;;;;;;;109842;1251;22574;-33
2022/07/21 09:27:18;;;;;;;4.20;2.10;;;;;;;;;;109879;1256;22445;-33
2022/07/21 09:29:53;;;;;;;4.30;2.00;;;;;;;;;;109894;1257;22558;-32
2022/07/21 09:32:29;;;;;;;4.90;2.10;;;;;;;;;;109871;1256;22515;-32
2022/07/21 09:35:05;;;;;;;4.60;2.20;;;;;;;;;;109862;1254;22511;-34
2022/07/21 09:37:40;;;;;;;4.70;1.80;;;;;;;;;;109864;1256;22602;-33
2022/07/21 09:40:18;;;;;;;3.80;1.70;;;;;;;;;;109870;1250;22841;-33
2022/07/21 09:42:56;;;;;;;4.10;2.00;;;;;;;;;;109906;1257;24310;-33
2022/07/21 09:45:28;;;;;;;3.60;1.70;;;;;;;;;;109867;1257;22666;-33
2022/07/21 09:48:01;;;;;;;5.10;1.80;;;;;;;;;;109887;1256;22512;-33
2022/07/21 09:50:34;;;;;;;4.10;2.30;;;;;;;;;;109880;1257;22430;-33
2022/07/21 09:53:06;;;;;;;4.20;1.70;;;;;;;;;;109891;1251;22689;-33
2022/07/21 09:55:42;;;;;;;3.10;1.60;;;;;;;;;;109862;1251;22491;-34
2022/07/21 09:58:17;;;;;;;4.00;2.10;;;;;;;;;;109911;1256;22524;-33
2022/07/21 10:00:50;;;;;;;3.30;1.70;;;;;;;;;;109843;1257;22525;-33
2022/07/21 10:03:24;;;;;;;3.60;1.50;;;;;;;;;;109876;1251;22517;-35
2022/07/21 10:05:58;;;;;;;4.40;1.70;;;;;;;;;;109882;1257;25202;-33
2022/07/21 10:08:30;;;;;;;3.50;1.50;;;;;;;;;;109882;1257;24421;-33
2022/07/21 10:11:03;;;;;;;4.10;1.80;;;;;;;;;;109852;1257;23565;-34
2022/07/21 10:13:36;;;;;;;4.30;1.70;;;;;;;;;;109864;1256;22627;-35
2022/07/21 10:16:13;;;;;;;4.50;1.80;;;;;;;;;;109854;1257;25431;-34
2022/07/21 10:19:00;;;;;;;4.00;1.70;;;;;;;;;;109871;1251;25317;-33
2022/07/21 10:21:42;;;;;;;2.90;1.40;;;;;;;;;;109910;1257;24207;-33
2022/07/21 10:24:16;;;;;;;3.70;1.70;;;;;;;;;;109867;1257;24144;-32
2022/07/21 10:27:11;;;;;;;5.10;1.70;;;;;;;;;;109875;1256;22512;-33
2022/07/21 10:30:01;;;;;;;4.50;1.80;;;;;;;;;;110017;1256;22529;-34
2022/07/21 10:32:38;;;;;;;3.10;1.50;;;;;;;;;;110045;1251;22532;-33
2022/07/21 10:35:31;;;;;;;3.50;1.50;;;;;;;;;;110030;1257;23576;-33
2022/07/21 10:38:05;;;;;;;3.10;1.50;;;;;;;;;;110029;1257;23817;-34
2022/07/21 10:40:42;;;;;;;3.90;1.80;;;;;;;;;;110045;1257;22938;-33
2022/07/21 10:43:45;;;;;;;4.10;1.60;;;;;;;;;;110064;1257;22544;-32
2022/07/21 10:46:38;;;;;;;4.40;1.60;;;;;;;;;;110026;1256;25196;-32
2022/07/21 10:49:11;;;;;;;3.90;1.50;;;;;;;;;;110048;1257;24162;-32
2022/07/21 10:51:43;;;;;;;3.00;1.60;;;;;;;;;;110043;1256;22573;-32
2022/07/21 10:54:30;;;;;;;3.50;1.50;;;;;;;;;;110066;1256;23744;-33
2022/07/21 10:57:30;;;;;;;3.30;1.20;;;;;;;;;;110038;1256;22961;-32
2022/07/21 11:00:29;;;;;;;4.20;1.70;;;;;;;;;;109850;1257;24166;-31
2022/07/21 11:03:03;;;;;;;3.80;1.60;;;;;;;;;;109894;1256;23896;-33
2022/07/21 11:05:38;;;;;;;3.80;1.60;;;;;;;;;;109831;1257;24166;-32
2022/07/21 11:08:17;;;;;;;4.00;1.40;;;;;;;;;;109845;1251;22518;-32
2022/07/21 11:10:52;;;;;;;3.70;1.60;;;;;;;;;;109913;1257;25361;-32
2022/07/21 11:13:27;;;;;;;23.70;9.70;;;;;;;;;;110064;1257;22537;-32
2022/07/21 11:16:02;;;;;;;24.30;10.70;;;;;;;;;;110068;1256;22510;-32
2022/07/21 11:18:35;;;;;;;23.30;11.40;;;;;;;;;;110043;1252;23903;-32
2022/07/21 11:21:14;;;;;;;39.80;18.60;;;;;;;;;;110042;1256;22938;-33
2022/07/21 11:23:49;;;;;;;27.20;13.00;;;;;;;;;;110067;1256;22559;-34
2022/07/21 11:26:28;;;;;;;28.70;12.30;;;;;;;;;;110098;1252;22518;-34
2022/07/21 11:29:11;;;;;;;22.50;11.20;;;;;;;;;;110076;1256;22509;-35
2022/07/21 11:31:50;;;;;;;24.10;11.00;;;;;;;;;;110029;1256;22869;-33
2022/07/21 11:34:23;;;;;;;24.30;10.80;;;;;;;;;;110051;1256;22512;-33
2022/07/21 11:37:03;;;;;;;26.70;10.90;;;;;;;;;;110026;1256;22519;-34
2022/07/21 11:39:37;;;;;;;22.50;10.70;;;;;;;;;;110059;1257;22665;-34
2022/07/21 11:42:15;;;;;;;21.90;10.30;;;;;;;;;;110078;1257;22514;-33
2022/07/21 11:44:47;;;;;;;19.90;9.40;;;;;;;;;;110065;1256;22431;-32
2022/07/21 11:47:25;;;;;;;;;;;;;;;;;;110054;1256;22394;-34
2022/07/21 11:49:59;;;;;;;18.20;9.40;;;;;;;;;;110082;1256;23598;-34
2022/07/21 11:52:33;;;;;;;17.00;8.20;;;;;;;;;;109828;1248;33858;-36
2022/07/21 11:55:09;;;;;;;17.00;8.50;;;;;;;;;;109723;1251;33621;-36
2022/07/21 11:57:45;;;;;;;17.50;7.20;;;;;;;;;;109746;1251;33738;-34
2022/07/21 12:00:20;;;;;;;15.80;7.50;;;;;;;;;;109549;1251;33701;-34
2022/07/21 12:02:52;;;;;;;14.90;7.70;;;;;;;;;;109606;1251;33341;-34
2022/07/21 12:05:24;;;;;;;13.40;6.80;;;;;;;;;;109567;1251;33673;-34
2022/07/21 12:07:57;;;;;;;17.90;8.10;;;;;;;;;;109604;1251;33745;-37
2022/07/21 12:10:30;;;;;;;13.80;7.00;;;;;;;;;;109579;1251;33998;-36
2022/07/21 12:13:05;;;;;;;12.60;6.80;;;;;;;;;;109569;1251;33365;-38
2022/07/21 12:15:41;;;;;;;12.50;6.60;;;;;;;;;;109606;1257;33597;-33
2022/07/21 12:18:25;;;;;;;14.40;6.90;;;;;;;;;;109622;1251;33390;-35
2022/07/21 12:21:06;;;;;;;12.30;6.80;;;;;;;;;;109600;1251;33768;-34
2022/07/21 12:23:44;;;;;;;12.80;6.20;;;;;;;;;;109560;1251;32894;-36
2022/07/21 12:26:27;;;;;;;12.90;7.10;;;;;;;;;;109607;1256;33311;-35
2022/07/21 12:29:03;;;;;;;12.60;6.40;;;;;;;;;;109566;1251;33363;-35
2022/07/21 12:31:39;;;;;;;10.70;6.00;;;;;;;;;;109592;1257;33249;-35
2022/07/21 12:34:20;;;;;;;10.90;5.70;;;;;;;;;;109591;1257;34072;-35
2022/07/21 12:36:53;;;;;;;9.70;5.80;;;;;;;;;;109616;1251;33733;-36
2022/07/21 12:42:38;;;;;;;9.90;4.90;;;;;;;;;;109736;1256;33316;-36
2022/07/21 12:45:22;;;;;;;9.10;4.90;;;;;;;;;;109805;1248;33578;-36
2022/07/21 12:48:18;;;;;;;9.30;5.20;;;;;;;;;;109818;1248;33807;-35
2022/07/21 12:51:12;;;;;;;7.10;4.30;;;;;;;;;;109818;1256;33763;-35
2022/07/21 12:53:50;;;;;;;9.20;4.60;;;;;;;;;;109811;1257;33200;-36
2022/07/21 12:56:31;;;;;;;7.30;4.00;;;;;;;;;;109730;1248;33578;-36
2022/07/21 12:59:06;;;;;;;7.90;4.50;;;;;;;;;;109629;1251;34049;-35
2022/07/21 13:01:42;;;;;;;7.20;3.70;;;;;;;;;;109624;1251;33388;-36
2022/07/21 13:04:16;;;;;;;6.80;3.90;;;;;;;;;;109619;1251;33967;-36
2022/07/21 13:06:52;;;;;;;8.00;3.90;;;;;;;;;;109606;1256;33437;-35
2022/07/21 13:09:24;;;;;;;6.50;3.60;;;;;;;;;;109605;1251;33849;-35
2022/07/21 13:12:03;;;;;;;6.90;3.80;;;;;;;;;;109608;1254;33799;-36
2022/07/21 13:14:39;;;;;;;6.00;3.50;;;;;;;;;;109578;1251;34085;-36
2022/07/21 13:17:12;;;;;;;6.50;3.90;;;;;;;;;;109600;1251;33574;-35
2022/07/21 13:19:45;;;;;;;;;;;;;;;;;;109589;1251;33389;-35
2022/07/21 13:22:18;;;;;;;6.60;3.50;;;;;;;;;;109639;1251;33246;-35
2022/07/21 13:24:51;;;;;;;6.20;3.50;;;;;;;;;;109613;1251;33416;-36
2022/07/21 13:27:26;;;;;;;6.20;3.30;;;;;;;;;;109597;1251;33748;-36
2022/07/21 13:30:05;;;;;;;7.10;3.20;;;;;;;;;;109593;1257;33255;-36
2022/07/21 13:32:38;;;;;;;5.60;3.00;;;;;;;;;;109621;1250;33738;-36
2022/07/21 13:35:15;;;;;;;6.30;2.90;;;;;;;;;;109592;1257;34452;-36
2022/07/21 13:37:53;;;;;;;6.60;3.00;;;;;;;;;;109338;1257;34141;-36
2022/07/21 13:40:28;;;;;;;5.80;3.20;;;;;;;;;;109598;1257;33591;-36
2022/07/21 13:43:01;;;;;;;6.30;3.10;;;;;;;;;;109610;1251;34140;-36
2022/07/21 13:45:31;;;;;;;;;;;;;;;;;;109576;1251;33759;-36
2022/07/21 13:48:05;;;;;;;5.40;3.10;;;;;;;;;;109573;1251;33465;-36
2022/07/21 13:50:39;;;;;;;6.20;3.30;;;;;;;;;;109617;1256;34268;-36
2022/07/21 13:53:14;;;;;;;5.40;3.30;;;;;;;;;;109601;1251;33656;-35
2022/07/21 13:55:47;;;;;;;6.00;3.50;;;;;;;;;;109626;1251;34123;-36
2022/07/21 13:58:20;;;;;;;6.40;3.60;;;;;;;;;;109580;1251;33765;-37
2022/07/21 14:00:53;;;;;;;7.20;3.40;;;;;;;;;;109629;1256;33546;-38
2022/07/21 14:03:26;;;;;;;5.60;3.80;;;;;;;;;;108821;1250;33714;-36
2022/07/21 14:05:59;;;;;;;5.70;3.60;;;;;;;;;;109655;1251;33589;-36
2022/07/21 14:08:31;;;;;;;5.90;3.50;;;;;;;;;;109374;1251;33758;-36
2022/07/21 14:11:03;;;;;;;5.70;3.60;;;;;;;;;;109641;1256;33088;-36
2022/07/21 14:13:36;;;;;;;6.30;3.60;;;;;;;;;;109628;1257;33567;-36
2022/07/21 14:16:10;;;;;;;6.00;3.10;;;;;;;;;;109636;1250;34044;-36
2022/07/21 14:18:43;;;;;;;5.40;3.20;;;;;;;;;;109660;1251;34031;-33
2022/07/21 14:21:15;;;;;;;4.80;2.90;;;;;;;;;;109618;1256;33441;-36
2022/07/21 14:25:17;;;;;;;5.60;3.20;;;;;;;;;;109625;1251;33442;-37
2022/07/21 14:26:45;;;;;;;5.10;3.20;;;;;;;;;;109641;1251;33236;-37
2022/07/21 14:29:17;;;;;;;4.90;2.90;;;;;;;;;;109588;1251;33434;-37
2022/07/21 14:31:50;;;;;;;6.20;2.80;;;;;;;;;;109605;1251;32974;-37
2022/07/21 14:34:26;;;;;;;5.90;3.10;;;;;;;;;;109605;1251;33640;-37
2022/07/21 14:37:02;;;;;;;4.70;3.00;;;;;;;;;;109613;1251;33207;-37
2022/07/21 14:39:38;;;;;;;5.80;3.00;;;;;;;;;;109613;1251;33743;-37
2022/07/21 14:42:11;;;;;;;5.00;3.10;;;;;;;;;;109573;1251;33326;-37
2022/07/21 14:44:45;;;;;;;4.70;2.90;;;;;;;;;;109589;1251;33493;-37
2022/07/21 14:47:23;;;;;;;5.80;3.10;;;;;;;;;;109583;1251;33646;-37
2022/07/21 14:50:01;;;;;;;5.60;3.40;;;;;;;;;;109585;1254;33752;-37
2022/07/21 14:52:34;;;;;;;5.50;2.90;;;;;;;;;;109618;1251;33378;-37
2022/07/21 14:55:10;;;;;;;4.60;2.70;;;;;;;;;;109594;1256;34415;-37
2022/07/21 14:57:46;;;;;;;5.00;3.30;;;;;;;;;;109672;1251;33819;-37
2022/07/21 15:00:23;;;;;;;6.20;3.50;;;;;;;;;;109824;1248;33624;-37
2022/07/21 15:03:01;;;;;;;7.40;2.70;;;;;;;;;;109799;1256;33561;-37
2022/07/21 15:05:34;;;;;;;5.50;3.30;;;;;;;;;;109816;1248;32969;-37
2022/07/21 15:08:08;;;;;;;5.40;3.00;;;;;;;;;;109816;1256;33717;-37
2022/07/21 15:10:46;;;;;;;4.60;2.90;;;;;;;;;;109633;1256;34207;-37
2022/07/21 15:13:19;;;;;;;6.70;2.80;;;;;;;;;;109794;1248;33528;-37
2022/07/21 15:15:52;;;;;;;5.20;2.80;;;;;;;;;;109791;1248;33416;-33
2022/07/21 15:18:23;;;;;;;;;;;;;;;;;;109840;1256;33314;-38
2022/07/21 15:20:56;;;;;;;7.70;3.20;;;;;;;;;;109805;1248;32727;-35
2022/07/21 15:23:29;;;;;;;5.10;2.90;;;;;;;;;;109809;1248;33455;-35
2022/07/21 15:26:05;;;;;;;4.80;2.80;;;;;;;;;;109806;1248;33731;-35